Time;durP1;ratioP1;P1;durP2;ratioP2;P2;SDS_P1;SDS_P2;PMS_P1;PMS_P2;Temp;Humidity;BMP_temperature;BMP_pressure;BME280_temperature;BME280_humidity;BME280_pressure;Samples;Min_cycle;Max_cycle;Signal;HPM_P1;HPM_P2
2023/08/17 00:00:29;;;;;;;30.52;24.23;;;22.20;99.90;;;;;;5114033;28;20482;-50
2023/08/17 00:02:55;;;;;;;28.15;25.25;;;22.20;99.90;;;;;;5128515;27;20036;-51
2023/08/17 00:05:21;;;;;;;27.25;24.52;;;22.20;99.90;;;;;;5113473;28;20081;-50
2023/08/17 00:07:47;;;;;;;27.60;24.83;;;22.20;99.90;;;;;;5114524;28;20115;-50
2023/08/17 00:10:13;;;;;;;27.33;24.48;;;;;;;;;;5113120;28;20474;-50
2023/08/17 00:12:39;;;;;;;28.20;25.42;;;;;;;;;;5114097;28;20020;-50
2023/08/17 00:15:05;;;;;;;27.27;24.70;;;;;;;;;;5113174;28;20031;-50
2023/08/17 00:17:31;;;;;;;27.05;24.38;;;;;;;;;;5060506;28;20039;-50
2023/08/17 00:19:57;;;;;;;31.02;28.02;;;21.70;99.90;;;;;;5102697;28;20039;-51
2023/08/17 00:22:23;;;;;;;32.53;29.23;;;;;;;;;;5110993;28;20050;-50
2023/08/17 00:24:49;;;;;;;31.88;28.65;;;21.90;99.90;;;;;;5112892;28;20096;-50
2023/08/17 00:27:15;;;;;;;40.15;35.90;;;21.80;99.90;;;;;;5112453;28;20068;-50
2023/08/17 00:29:40;;;;;;;36.05;32.28;;;21.90;99.90;;;;;;5113107;28;20030;-50
2023/08/17 00:32:07;;;;;;;34.92;31.17;;;21.90;99.90;;;;;;5113072;28;20169;-50
2023/08/17 00:34:32;;;;;;;34.92;31.13;;;21.90;99.90;;;;;;5112903;28;20040;-50
2023/08/17 00:36:58;;;;;;;32.45;29.08;;;21.90;99.90;;;;;;5104613;28;20024;-50
2023/08/17 00:39:24;;;;;;;30.45;27.52;;;21.90;99.90;;;;;;5113049;28;20361;-50
2023/08/17 00:41:49;;;;;;;29.90;26.70;;;21.80;99.90;;;;;;5113523;28;20067;-50
2023/08/17 00:44:16;;;;;;;32.53;28.13;;;;;;;;;;5112746;28;20479;-50
2023/08/17 00:46:42;;;;;;;29.67;26.67;;;;;;;;;;5112941;28;20455;-50
2023/08/17 00:49:08;;;;;;;28.85;25.58;;;;;;;;;;5113458;28;20019;-50
2023/08/17 00:51:33;;;;;;;29.45;26.38;;;21.50;99.90;;;;;;5113413;28;20023;-50
2023/08/17 00:54:01;;;;;;;28.95;26.02;;;21.40;99.90;;;;;;5113549;28;20450;-50
2023/08/17 00:56:27;;;;;;;27.38;24.48;;;;;;;;;;5115177;28;20066;-50
2023/08/17 00:58:53;;;;;;;28.92;25.92;;;;;;;;;;5081505;28;20040;-50
2023/08/17 01:01:20;;;;;;;29.15;26.10;;;;;;;;;;5098181;28;20135;-51
2023/08/17 01:03:46;;;;;;;30.08;27.10;;;21.40;99.90;;;;;;5115620;28;20058;-50
2023/08/17 01:06:12;;;;;;;29.10;26.10;;;21.40;99.90;;;;;;5116912;28;20467;-50
2023/08/17 01:08:39;;;;;;;29.73;26.60;;;21.30;99.90;;;;;;5098404;28;20061;-50
2023/08/17 01:11:31;;;;;;;26.02;23.42;;;21.40;99.90;;;;;;5116830;28;20031;-50
2023/08/17 01:14:03;;;;;;;27.27;24.50;;;21.50;99.90;;;;;;5106312;28;20428;-50
2023/08/17 01:16:52;;;;;;;27.70;24.90;;;21.50;99.90;;;;;;5117057;28;20023;-50
2023/08/17 01:19:26;;;;;;;27.55;24.75;;;21.50;99.90;;;;;;5116810;28;20047;-50
2023/08/17 01:21:56;;;;;;;29.33;25.35;;;21.60;99.90;;;;;;5081715;28;20027;-50
2023/08/17 01:24:22;;;;;;;26.15;23.35;;;21.50;99.90;;;;;;5116921;28;20100;-50
2023/08/17 01:26:48;;;;;;;28.67;25.75;;;;;;;;;;5098107;28;20471;-50
2023/08/17 01:29:15;;;;;;;28.13;25.40;;;21.30;99.90;;;;;;5116775;28;20028;-51
2023/08/17 01:31:54;;;;;;;28.98;26.13;;;21.30;99.90;;;;;;5117036;28;20027;-50
2023/08/17 01:34:23;;;;;;;26.42;23.63;;;;;;;;;;5116555;28;20039;-50
2023/08/17 01:36:59;;;;;;;27.75;24.88;;;21.30;99.90;;;;;;5111594;28;20016;-50
2023/08/17 01:39:37;;;;;;;27.23;24.33;;;21.20;99.90;;;;;;5096256;28;20028;-50
2023/08/17 01:42:04;;;;;;;25.13;22.63;;;21.20;99.90;;;;;;5096468;28;20040;-50
2023/08/17 01:44:30;;;;;;;27.10;24.30;;;21.30;99.90;;;;;;5052811;28;20056;-50
2023/08/17 01:46:56;;;;;;;25.00;22.50;;;21.30;99.90;;;;;;5067929;28;20048;-50
2023/08/17 01:49:22;;;;;;;28.20;24.55;;;21.20;99.90;;;;;;5073591;28;20044;-51
2023/08/17 01:51:47;;;;;;;27.00;23.67;;;21.20;99.90;;;;;;5073727;28;20146;-50
2023/08/17 01:54:13;;;;;;;27.63;24.02;;;21.10;99.90;;;;;;5073573;28;20043;-50
2023/08/17 01:56:39;;;;;;;25.88;23.20;;;21.10;99.90;;;;;;5073679;28;20048;-50
2023/08/17 01:59:04;;;;;;;27.02;24.33;;;21.00;99.90;;;;;;5073569;28;20033;-50
2023/08/17 02:01:30;;;;;;;26.35;23.65;;;;;;;;;;5072936;28;20037;-50
2023/08/17 02:03:56;;;;;;;27.13;24.42;;;21.00;99.90;;;;;;5056853;28;20041;-50
2023/08/17 02:06:22;;;;;;;25.92;23.50;;;21.10;99.90;;;;;;5072617;28;20066;-50
2023/08/17 02:08:48;;;;;;;27.35;22.25;;;21.20;99.90;;;;;;5073496;28;20037;-50
2023/08/17 02:11:13;;;;;;;23.98;21.60;;;21.20;99.90;;;;;;5072891;28;20024;-50
2023/08/17 02:13:39;;;;;;;26.08;23.50;;;21.10;99.90;;;;;;5073305;28;20067;-50
2023/08/17 02:16:05;;;;;;;24.17;21.75;;;21.00;99.90;;;;;;5039641;28;20067;-50
2023/08/17 02:18:33;;;;;;;24.65;22.25;;;21.10;99.90;;;;;;5073124;28;20039;-50
2023/08/17 02:20:58;;;;;;;25.73;22.77;;;21.20;99.90;;;;;;5077963;28;20033;-50
2023/08/17 02:23:24;;;;;;;25.15;22.55;;;21.20;99.90;;;;;;5114653;28;20027;-50
2023/08/17 02:25:50;;;;;;;25.20;22.50;;;21.20;99.90;;;;;;5131158;27;20043;-50
2023/08/17 02:28:15;;;;;;;23.67;21.30;;;21.30;99.90;;;;;;5115770;28;20024;-50
2023/08/17 02:30:41;;;;;;;23.77;21.38;;;21.20;99.90;;;;;;5116263;28;20100;-51
2023/08/17 02:33:07;;;;;;;24.10;21.67;;;21.20;99.90;;;;;;5114769;28;20156;-50
2023/08/17 02:35:33;;;;;;;24.98;22.33;;;21.20;99.90;;;;;;5107762;28;20028;-51
2023/08/17 02:37:59;;;;;;;24.55;22.13;;;21.20;99.90;;;;;;5115109;28;20027;-50
2023/08/17 02:40:24;;;;;;;25.13;22.50;;;21.20;99.90;;;;;;5096421;28;20039;-50
2023/08/17 02:42:50;;;;;;;25.48;22.75;;;21.20;99.90;;;;;;5114742;28;20471;-50
2023/08/17 02:45:16;;;;;;;25.25;22.27;;;21.20;99.90;;;;;;5114963;28;20097;-50
2023/08/17 02:47:41;;;;;;;23.67;21.38;;;21.20;99.90;;;;;;5094910;28;20067;-51
2023/08/17 02:50:08;;;;;;;24.42;21.83;;;21.20;99.90;;;;;;5130497;27;20092;-50
2023/08/17 02:52:34;;;;;;;28.15;23.52;;;20.80;99.90;;;;;;5096602;28;20043;-50
2023/08/17 02:54:59;;;;;;;26.08;22.88;;;20.40;99.90;;;;;;5115527;28;20036;-50
2023/08/17 02:57:25;;;;;;;24.52;21.92;;;20.40;99.90;;;;;;5115518;28;20496;-50
2023/08/17 02:59:51;;;;;;;25.75;23.17;;;20.20;99.90;;;;;;5115008;28;20553;-50
2023/08/17 03:02:16;;;;;;;26.92;24.02;;;20.00;99.90;;;;;;5115049;28;20099;-50
2023/08/17 03:04:42;;;;;;;25.45;22.65;;;20.20;99.90;;;;;;5112758;28;20042;-50
2023/08/17 03:07:08;;;;;;;24.63;22.20;;;20.20;99.90;;;;;;5115106;28;20102;-50
2023/08/17 03:09:34;;;;;;;25.08;22.60;;;;;;;;;;5114616;28;20031;-50
2023/08/17 03:12:00;;;;;;;25.58;22.83;;;19.60;99.90;;;;;;5115055;28;20030;-50
2023/08/17 03:14:25;;;;;;;24.55;21.85;;;19.60;99.90;;;;;;5114749;28;20028;-50
2023/08/17 03:16:51;;;;;;;24.58;21.80;;;19.60;99.90;;;;;;5112788;28;20035;-50
2023/08/17 03:19:17;;;;;;;22.33;19.83;;;19.60;99.90;;;;;;5129241;27;20031;-50
2023/08/17 03:21:43;;;;;;;24.20;21.63;;;19.50;99.90;;;;;;5114653;28;20047;-50
2023/08/17 03:24:09;;;;;;;23.77;20.67;;;19.50;99.90;;;;;;5114840;28;20556;-51
2023/08/17 03:26:35;;;;;;;24.48;21.15;;;;;;;;;;5114683;28;20364;-50
2023/08/17 03:29:00;;;;;;;25.63;22.85;;;19.10;99.90;;;;;;5114804;28;20026;-50
2023/08/17 03:31:26;;;;;;;24.02;21.52;;;19.20;99.90;;;;;;5078488;28;20122;-50
2023/08/17 03:33:52;;;;;;;26.58;21.65;;;19.40;99.90;;;;;;5113993;28;20039;-50
2023/08/17 03:36:18;;;;;;;22.95;20.40;;;19.70;99.90;;;;;;5114849;28;20454;-50
2023/08/17 03:38:43;;;;;;;29.25;21.30;;;19.90;99.90;;;;;;5113948;27;20031;-50
2023/08/17 03:41:09;;;;;;;28.58;20.25;;;;;;;;;;5127104;27;20028;-50
2023/08/17 03:43:35;;;;;;;22.30;20.05;;;;;;;;;;5095202;28;20040;-50
2023/08/17 03:46:02;;;;;;;23.38;20.77;;;;;;;;;;5113897;28;20051;-50
2023/08/17 03:48:28;;;;;;;24.13;21.70;;;;;;;;;;5114206;28;20439;-50
2023/08/17 03:50:55;;;;;;;23.80;20.63;;;;;;;;;;5113673;28;20035;-50
2023/08/17 03:53:21;;;;;;;23.70;21.20;;;19.50;99.90;;;;;;5114504;28;20036;-50
2023/08/17 03:55:50;;;;;;;23.92;21.40;;;19.40;99.90;;;;;;5114051;28;20028;-50
2023/08/17 03:58:18;;;;;;;24.15;21.63;;;19.50;99.90;;;;;;5114186;28;20029;-50
2023/08/17 04:00:51;;;;;;;24.80;20.83;;;19.80;99.90;;;;;;5114248;28;20035;-50
2023/08/17 04:03:17;;;;;;;21.88;19.77;;;;;;;;;;5113490;28;20107;-50
2023/08/17 04:05:43;;;;;;;24.15;21.55;;;20.30;99.90;;;;;;5113499;28;20024;-50
2023/08/17 04:08:09;;;;;;;23.42;20.95;;;20.30;99.90;;;;;;5113874;28;20031;-51
2023/08/17 04:10:34;;;;;;;23.50;21.17;;;20.30;99.90;;;;;;5113164;28;20356;-50
2023/08/17 04:13:00;;;;;;;24.23;21.50;;;20.10;99.90;;;;;;5113608;28;20115;-50
2023/08/17 04:15:26;;;;;;;25.52;21.80;;;20.30;99.90;;;;;;5078067;28;20140;-50
2023/08/17 04:17:52;;;;;;;24.58;21.30;;;20.50;99.90;;;;;;5095126;28;20035;-50
2023/08/17 04:20:21;;;;;;;25.17;20.63;;;20.60;99.90;;;;;;5112815;28;20030;-50
2023/08/17 04:22:47;;;;;;;22.00;19.73;;;;;;;;;;5097255;28;20115;-50
2023/08/17 04:25:13;;;;;;;25.95;20.42;;;20.80;99.90;;;;;;5111026;28;20063;-50
2023/08/17 04:27:39;;;;;;;24.38;20.75;;;;;;;;;;5090927;28;20039;-50
2023/08/17 04:30:06;;;;;;;24.92;19.70;;;21.10;99.90;;;;;;5100898;28;20054;-50
2023/08/17 04:32:32;;;;;;;22.10;19.70;;;21.00;99.90;;;;;;5095024;28;20071;-50
2023/08/17 04:34:57;;;;;;;29.58;21.25;;;21.20;99.90;;;;;;5113432;28;20072;-50
2023/08/17 04:37:24;;;;;;;29.85;20.80;;;;;;;;;;5111369;28;20396;-50
2023/08/17 04:39:49;;;;;;;25.75;20.67;;;21.40;99.90;;;;;;5113078;28;20032;-50
2023/08/17 04:42:15;;;;;;;27.77;20.73;;;21.40;99.90;;;;;;5110990;28;20509;-50
2023/08/17 04:44:41;;;;;;;30.70;21.45;;;;;;;;;;5112734;28;20056;-50
2023/08/17 04:47:07;;;;;;;26.13;20.35;;;21.60;99.90;;;;;;5111326;28;20097;-50
2023/08/17 04:49:33;;;;;;;23.17;20.88;;;;;;;;;;5092711;28;20430;-50
2023/08/17 04:51:59;;;;;;;26.08;22.40;;;21.80;99.90;;;;;;5112581;28;20031;-50
2023/08/17 04:54:25;;;;;;;28.52;21.50;;;21.70;99.90;;;;;;5093034;28;20100;-50
2023/08/17 04:56:50;;;;;;;24.38;20.50;;;21.90;99.90;;;;;;5110809;28;20511;-50
2023/08/17 04:59:16;;;;;;;22.20;20.00;;;21.90;99.90;;;;;;5111532;28;20055;-50
2023/08/17 05:01:42;;;;;;;22.33;20.15;;;21.90;99.90;;;;;;5060164;28;20038;-51
2023/08/17 05:04:07;;;;;;;32.28;21.27;;;21.90;99.90;;;;;;5112117;28;20382;-50
2023/08/17 05:06:33;;;;;;;24.85;20.08;;;21.80;99.90;;;;;;5112166;28;20031;-50
2023/08/17 05:08:59;;;;;;;23.77;20.50;;;21.80;99.90;;;;;;5092571;28;20039;-50
2023/08/17 05:11:25;;;;;;;23.42;21.13;;;21.90;99.90;;;;;;5111630;28;20387;-50
2023/08/17 05:13:51;;;;;;;22.88;20.75;;;21.90;99.90;;;;;;5112052;28;20034;-51
2023/08/17 05:16:17;;;;;;;24.58;21.88;;;21.80;99.90;;;;;;5092692;28;20127;-50
2023/08/17 05:18:42;;;;;;;24.90;22.15;;;21.70;99.90;;;;;;5111877;28;20028;-50
2023/08/17 05:21:08;;;;;;;22.45;20.25;;;21.90;99.90;;;;;;5110177;28;20065;-50
2023/08/17 05:23:34;;;;;;;25.48;19.70;;;22.10;99.90;;;;;;5112497;28;20027;-50
2023/08/17 05:26:00;;;;;;;26.23;23.40;;;22.20;99.90;;;;;;5113371;28;20118;-50
2023/08/17 05:28:26;;;;;;;31.55;24.60;;;22.30;99.90;;;;;;5112365;28;20040;-50
2023/08/17 05:30:53;;;;;;;24.60;22.00;;;22.40;99.90;;;;;;5111916;28;20566;-50
2023/08/17 05:33:19;;;;;;;24.42;21.65;;;22.40;99.90;;;;;;5088704;28;20513;-50
2023/08/17 05:35:45;;;;;;;24.00;20.88;;;22.50;99.90;;;;;;5113151;28;20028;-50
2023/08/17 05:38:10;;;;;;;24.58;22.02;;;22.60;99.90;;;;;;5112335;28;20024;-50
2023/08/17 05:40:36;;;;;;;24.55;19.83;;;22.80;99.90;;;;;;5090184;28;20035;-50
2023/08/17 05:43:02;;;;;;;25.40;22.45;;;;;;;;;;5115083;28;20036;-50
2023/08/17 05:45:28;;;;;;;29.20;23.15;;;22.90;99.90;;;;;;5116029;28;20101;-50
2023/08/17 05:47:54;;;;;;;32.10;25.80;;;22.90;99.90;;;;;;5114520;28;20028;-50
2023/08/17 05:50:20;;;;;;;39.60;27.60;;;23.10;99.90;;;;;;5079131;28;20036;-50
2023/08/17 05:52:45;;;;;;;27.55;24.40;;;23.20;99.90;;;;;;5113663;28;20038;-50
2023/08/17 05:55:11;;;;;;;32.13;27.40;;;;;;;;;;5114731;28;20477;-50
2023/08/17 05:57:37;;;;;;;29.52;26.45;;;23.30;99.90;;;;;;5095433;28;20036;-50
2023/08/17 06:00:04;;;;;;;28.85;25.88;;;;;;;;;;5114359;28;20068;-50
2023/08/17 06:02:29;;;;;;;29.42;26.42;;;23.50;99.90;;;;;;5113881;28;20030;-50
2023/08/17 06:04:55;;;;;;;28.65;25.65;;;23.60;99.90;;;;;;5111876;28;20069;-50
2023/08/17 06:07:21;;;;;;;25.90;23.40;;;23.80;99.90;;;;;;5114208;28;20073;-50
2023/08/17 06:09:46;;;;;;;27.52;24.60;;;23.80;99.90;;;;;;5094526;28;20031;-50
2023/08/17 06:12:12;;;;;;;25.00;22.42;;;24.00;99.90;;;;;;5113824;28;20027;-50
2023/08/17 06:14:38;;;;;;;30.20;24.00;;;24.10;99.90;;;;;;5114170;28;20027;-48
2023/08/17 06:17:04;;;;;;;26.88;24.08;;;24.10;99.90;;;;;;5111834;28;20433;-48
2023/08/17 06:19:30;;;;;;;25.45;22.67;;;24.10;99.90;;;;;;5114655;28;20564;-49
2023/08/17 06:21:55;;;;;;;26.55;23.92;;;24.10;99.90;;;;;;5113585;28;20040;-49
2023/08/17 06:24:21;;;;;;;25.45;22.85;;;24.30;99.90;;;;;;5115622;28;20020;-50
2023/08/17 06:26:47;;;;;;;22.63;20.27;;;;;;;;;;5115470;28;20040;-50
2023/08/17 06:29:13;;;;;;;24.50;22.00;;;24.60;99.90;;;;;;5114803;28;20364;-49
2023/08/17 06:31:39;;;;;;;24.20;21.58;;;24.70;99.90;;;;;;5115450;28;20030;-48
2023/08/17 06:34:04;;;;;;;22.15;19.90;;;24.80;99.90;;;;;;5114903;28;20035;-49
2023/08/17 06:36:32;;;;;;;22.17;20.05;;;;;;;;;;5114062;28;20031;-51
2023/08/17 06:38:58;;;;;;;23.67;21.17;;;25.10;99.90;;;;;;5114831;28;20445;-50
2023/08/17 06:41:24;;;;;;;20.42;18.33;;;25.30;99.90;;;;;;5114771;28;20106;-50
2023/08/17 06:43:51;;;;;;;22.25;19.88;;;25.40;99.90;;;;;;5115608;28;20032;-50
2023/08/17 06:46:17;;;;;;;21.55;19.38;;;25.40;99.90;;;;;;5116067;28;20355;-51
2023/08/17 06:48:43;;;;;;;24.42;21.90;;;25.50;99.90;;;;;;5113245;28;20134;-50
2023/08/17 06:51:09;;;;;;;27.02;24.02;;;25.60;99.90;;;;;;5112227;28;20122;-51
2023/08/17 06:53:35;;;;;;;24.33;21.80;;;25.50;99.90;;;;;;5114016;28;20102;-51
2023/08/17 06:56:01;;;;;;;25.92;23.33;;;25.60;99.90;;;;;;5072567;28;20067;-50
2023/08/17 06:58:26;;;;;;;24.20;21.85;;;25.70;99.90;;;;;;5114689;28;20502;-52
2023/08/17 07:00:52;;;;;;;23.77;21.38;;;;;;;;;;5114631;28;20035;-50
2023/08/17 07:03:18;;;;;;;23.02;19.52;;;25.80;99.90;;;;;;5115087;28;20020;-51
2023/08/17 07:05:44;;;;;;;19.52;17.52;;;25.90;99.90;;;;;;5075747;28;20387;-51
2023/08/17 07:08:10;;;;;;;19.55;17.65;;;25.90;99.90;;;;;;5114499;28;20599;-51
2023/08/17 07:10:36;;;;;;;17.55;15.73;;;26.10;99.90;;;;;;5115126;28;20023;-51
2023/08/17 07:13:03;;;;;;;16.85;15.05;;;25.90;99.90;;;;;;5114901;27;20031;-51
2023/08/17 07:15:32;;;;;;;17.30;15.63;;;25.90;99.90;;;;;;5095827;28;20518;-51
2023/08/17 07:17:57;;;;;;;14.18;12.88;;;26.00;99.90;;;;;;5075204;28;20070;-51
2023/08/17 07:20:23;;;;;;;14.55;13.15;;;26.00;99.90;;;;;;5111776;27;20063;-51
2023/08/17 07:22:49;;;;;;;17.00;15.35;;;;;;;;;;5115076;27;20430;-50
2023/08/17 07:25:15;;;;;;;18.48;16.40;;;;;;;;;;5096588;28;20043;-51
2023/08/17 07:27:42;;;;;;;16.85;15.15;;;;;;;;;;5119669;27;20028;-53
2023/08/17 07:30:09;;;;;;;17.42;14.32;;;;;;;;;;5113865;27;20028;-51
2023/08/17 07:32:34;;;;;;;16.20;14.27;;;27.20;99.90;;;;;;5114081;27;20024;-51
2023/08/17 07:35:00;;;;;;;16.10;14.55;;;27.40;99.90;;;;;;5117159;27;20044;-54
2023/08/17 07:37:32;;;;;;;16.48;14.60;;;27.40;99.90;;;;;;5117267;27;20031;-54
2023/08/17 07:39:59;;;;;;;16.65;14.88;;;;;;;;;;5108611;27;20056;-55
2023/08/17 07:42:25;;;;;;;14.70;13.40;;;;;;;;;;5074835;28;20027;-54
2023/08/17 07:44:51;;;;;;;14.73;13.18;;;28.00;99.90;;;;;;5112774;27;20044;-55
2023/08/17 07:47:16;;;;;;;14.73;13.23;;;28.00;99.90;;;;;;5109987;27;20092;-55
2023/08/17 07:49:42;;;;;;;17.45;13.98;;;27.70;99.90;;;;;;5113395;27;20024;-54
2023/08/17 07:52:08;;;;;;;16.75;15.00;;;27.50;99.90;;;;;;5120437;27;20035;-53
2023/08/17 07:54:34;;;;;;;17.75;15.13;;;27.50;99.90;;;;;;5097620;28;20047;-55
2023/08/17 07:57:00;;;;;;;18.05;15.02;;;27.70;99.90;;;;;;5116626;27;20634;-54
2023/08/17 07:59:25;;;;;;;15.57;13.77;;;27.70;99.90;;;;;;5096943;28;20031;-54
2023/08/17 08:01:51;;;;;;;16.63;14.43;;;28.00;99.90;;;;;;5116753;27;20024;-53
2023/08/17 08:04:17;;;;;;;15.48;13.93;;;28.00;99.90;;;;;;5118258;27;20036;-55
2023/08/17 08:06:43;;;;;;;16.63;14.63;;;28.00;99.90;;;;;;5120073;27;20474;-55
2023/08/17 08:09:08;;;;;;;18.17;15.52;;;27.90;99.90;;;;;;5116118;27;20023;-56
2023/08/17 08:11:34;;;;;;;16.52;14.82;;;27.90;99.90;;;;;;5111446;27;20066;-54
2023/08/17 08:14:00;;;;;;;20.63;17.30;;;28.00;99.90;;;;;;5111500;27;20115;-54
2023/08/17 08:16:30;;;;;;;25.50;16.63;;;28.20;99.90;;;;;;5087468;28;20481;-54
2023/08/17 08:18:56;;;;;;;18.55;15.98;;;28.30;99.90;;;;;;5061916;28;20042;-54
2023/08/17 08:21:22;;;;;;;20.05;17.90;;;28.20;99.90;;;;;;5111154;27;21417;-53
2023/08/17 08:23:48;;;;;;;23.45;17.73;;;;;;;;;;5086300;28;20040;-54
2023/08/17 08:26:14;;;;;;;21.17;17.40;;;28.80;99.90;;;;;;5114096;27;20023;-54
2023/08/17 08:28:40;;;;;;;17.35;15.05;;;28.70;99.90;;;;;;5110881;27;20046;-58
2023/08/17 08:31:05;;;;;;;15.80;13.65;;;29.20;99.90;;;;;;5111035;27;20085;-56
2023/08/17 08:33:31;;;;;;;22.35;16.83;;;29.20;99.90;;;;;;5109445;27;20106;-58
2023/08/17 08:35:57;;;;;;;17.80;14.88;;;29.00;99.90;;;;;;5114393;28;20035;-59
2023/08/17 08:38:24;;;;;;;16.35;14.75;;;29.00;99.90;;;;;;5108304;28;20107;-57
2023/08/17 08:40:50;;;;;;;19.40;16.17;;;29.00;99.90;;;;;;5094255;28;20096;-56
2023/08/17 08:43:16;;;;;;;23.58;17.25;;;28.90;99.90;;;;;;5106501;28;20370;-55
2023/08/17 08:45:44;;;;;;;18.45;15.25;;;;;;;;;;5109975;28;20074;-56
2023/08/17 08:48:11;;;;;;;16.30;14.60;;;29.50;99.90;;;;;;5110537;28;20039;-57
2023/08/17 08:50:40;;;;;;;15.68;13.57;;;30.00;99.90;;;;;;5116304;28;20079;-57
2023/08/17 08:53:13;;;;;;;17.75;14.70;;;29.90;99.90;;;;;;5065454;28;20123;-57
2023/08/17 08:56:00;;;;;;;16.15;14.00;;;29.70;99.90;;;;;;5031977;28;20628;-59
2023/08/17 08:58:27;;;;;;;16.65;14.55;;;30.10;99.90;;;;;;5034743;28;20040;-58
2023/08/17 09:00:53;;;;;;;17.83;13.55;;;29.70;99.90;;;;;;5030122;28;20076;-57
2023/08/17 09:03:20;;;;;;;15.85;14.07;;;29.90;99.90;;;;;;5030676;28;20033;-58
2023/08/17 09:05:50;;;;;;;16.02;14.32;;;30.00;99.90;;;;;;5035834;28;20502;-55
2023/08/17 09:08:24;;;;;;;15.82;14.20;;;29.60;99.90;;;;;;5033786;28;20033;-58
2023/08/17 09:10:50;;;;;;;15.40;13.93;;;29.90;99.90;;;;;;5029936;28;20051;-56
2023/08/17 09:13:16;;;;;;;15.30;13.25;;;;;;;;;;5030758;28;20021;-59
2023/08/17 09:15:42;;;;;;;14.75;13.25;;;30.60;99.90;;;;;;5028884;28;20068;-59
2023/08/17 09:18:08;;;;;;;17.73;15.93;;;;;;;;;;5030773;28;20029;-56
2023/08/17 09:20:39;;;;;;;16.92;15.27;;;31.40;99.90;;;;;;5037687;28;20091;-58
2023/08/17 09:23:12;;;;;;;19.23;14.88;;;31.60;99.90;;;;;;5031347;28;20042;-59
2023/08/17 09:25:39;;;;;;;14.65;13.10;;;31.40;99.90;;;;;;5042036;28;20108;-61
2023/08/17 09:28:10;;;;;;;16.67;13.88;;;31.80;99.90;;;;;;5098819;27;20044;-54
2023/08/17 09:30:56;;;;;;;15.77;14.17;;;;;;;;;;5097605;27;20480;-56
2023/08/17 09:33:23;;;;;;;16.15;13.27;;;;;;;;;;5114359;27;20020;-54
2023/08/17 09:35:49;;;;;;;14.48;12.98;;;;;;;;;;5115065;27;20044;-51
2023/08/17 09:38:15;;;;;;;14.25;12.85;;;32.40;99.90;;;;;;5113715;27;20030;-50
2023/08/17 09:40:42;;;;;;;14.35;12.00;;;32.50;99.90;;;;;;5113780;27;20015;-56
2023/08/17 09:43:09;;;;;;;14.18;12.68;;;;;;;;;;5114941;27;20373;-55
2023/08/17 09:45:36;;;;;;;13.02;11.60;;;;;;;;;;5113470;27;20824;-54
2023/08/17 09:48:02;;;;;;;12.65;10.90;;;;;;;;;;5113127;27;20030;-54
2023/08/17 09:50:28;;;;;;;14.27;12.32;;;;;;;;;;5079705;28;20043;-55
2023/08/17 09:52:55;;;;;;;14.85;12.10;;;;;;;;;;5106901;27;20028;-54
2023/08/17 09:55:22;;;;;;;13.57;12.02;;;;;;;;;;5111465;27;20086;-57
2023/08/17 09:57:52;;;;;;;13.27;11.80;;;;;;;;;;5111422;28;20034;-54
2023/08/17 10:00:21;;;;;;;14.20;11.70;;;;;;;;;;5110135;27;20075;-52
2023/08/17 10:02:51;;;;;;;15.70;13.70;;;;;;;;;;5116960;27;20062;-59
2023/08/17 10:05:18;;;;;;;15.20;13.10;;;;;;;;;;5111328;28;20044;-58
2023/08/17 10:07:48;;;;;;;15.70;14.15;;;;;;;;;;5112632;27;20459;-58
2023/08/17 10:10:17;;;;;;;16.60;14.32;;;;;;;;;;5041262;28;20040;-59
2023/08/17 10:13:06;;;;;;;14.70;13.30;;;;;;;;;;5071922;28;20094;-56
2023/08/17 10:16:08;;;;;;;15.68;14.15;;;;;;;;;;5032809;28;20052;-54
2023/08/17 10:18:45;;;;;;;15.88;14.27;;;31.90;99.90;;;;;;5038538;28;20040;-55
2023/08/17 10:21:18;;;;;;;16.98;14.48;;;31.20;99.90;;;;;;5036848;28;20030;-53
2023/08/17 10:23:45;;;;;;;15.82;14.13;;;31.20;99.90;;;;;;5027454;28;20049;-49
2023/08/17 10:26:12;;;;;;;13.90;12.40;;;31.70;99.90;;;;;;5049635;28;20039;-56
2023/08/17 10:28:39;;;;;;;13.45;12.25;;;;;;;;;;5053916;28;20040;-58
2023/08/17 10:31:05;;;;;;;14.38;12.88;;;32.10;99.90;;;;;;5049914;28;20052;-54
2023/08/17 10:33:31;;;;;;;18.88;14.40;;;32.30;99.90;;;;;;5053832;28;20098;-55
2023/08/17 10:35:58;;;;;;;18.58;13.95;;;32.70;99.90;;;;;;5050254;28;20080;-53
2023/08/17 10:38:23;;;;;;;15.48;13.77;;;32.50;99.90;;;;;;5037717;28;20037;-54
2023/08/17 10:41:14;;;;;;;15.93;14.40;;;32.10;99.90;;;;;;5052932;28;20052;-54
2023/08/17 10:43:59;;;;;;;17.25;15.10;;;31.80;99.90;;;;;;5053064;28;20041;-58
2023/08/17 10:46:40;;;;;;;17.60;15.80;;;31.60;99.90;;;;;;5023061;28;20507;-52
2023/08/17 10:49:07;;;;;;;15.00;13.30;;;31.80;99.90;;;;;;5089393;28;20036;-51
2023/08/17 10:51:34;;;;;;;15.63;13.20;;;32.50;99.90;;;;;;5095082;28;20543;-54
2023/08/17 10:54:02;;;;;;;14.38;12.90;;;;;;;;;;5093862;28;20040;-54
2023/08/17 10:56:29;;;;;;;15.48;13.88;;;33.60;99.90;;;;;;5094097;28;20167;-56
2023/08/17 10:58:59;;;;;;;16.85;13.55;;;33.40;99.90;;;;;;5097643;28;20019;-55
2023/08/17 11:01:40;;;;;;;46.00;16.65;;;33.00;99.90;;;;;;5082994;28;20152;-51
2023/08/17 11:04:11;;;;;;;17.25;13.02;;;32.80;99.90;;;;;;5090023;28;20125;-58
2023/08/17 11:06:37;;;;;;;14.53;13.13;;;32.90;99.90;;;;;;5048466;28;20028;-51
2023/08/17 11:09:07;;;;;;;15.93;13.50;;;32.70;99.90;;;;;;5016955;28;20288;-56
2023/08/17 11:11:33;;;;;;;14.77;13.25;;;;;;;;;;5092134;28;20039;-55
2023/08/17 11:13:59;;;;;;;24.35;22.00;;;;;;;;;;5092592;28;20070;-54
2023/08/17 11:16:26;;;;;;;16.15;14.57;;;;;;;;;;5075791;28;20135;-57
2023/08/17 11:18:52;;;;;;;16.08;14.48;;;;;;;;;;5072777;28;20482;-57
2023/08/17 11:21:18;;;;;;;15.77;14.18;;;;;;;;;;5090974;28;20028;-55
2023/08/17 11:23:44;;;;;;;16.10;14.40;;;;;;;;;;5093220;28;20109;-54
2023/08/17 11:26:11;;;;;;;15.07;13.63;;;;;;;;;;5095279;28;20031;-58
2023/08/17 11:28:38;;;;;;;15.00;13.50;;;33.50;99.90;;;;;;5091960;28;20040;-52
2023/08/17 11:31:06;;;;;;;14.32;12.93;;;33.90;99.90;;;;;;5094227;28;20078;-55
2023/08/17 11:33:33;;;;;;;15.95;14.52;;;;;;;;;;5092664;28;20027;-58
2023/08/17 11:36:00;;;;;;;14.18;12.82;;;33.90;99.90;;;;;;5084342;28;20047;-60
2023/08/17 11:38:29;;;;;;;15.65;14.13;;;33.30;99.90;;;;;;5095037;28;20032;-57
2023/08/17 11:40:56;;;;;;;14.20;12.70;;;;;;;;;;5085175;28;20036;-56
2023/08/17 11:43:22;;;;;;;15.32;13.63;;;;;;;;;;5093638;28;20031;-57
2023/08/17 11:45:49;;;;;;;13.35;12.10;;;;;;;;;;5089293;28;20052;-56
2023/08/17 11:48:16;;;;;;;14.82;13.32;;;32.30;99.90;;;;;;5091805;28;20127;-55
2023/08/17 11:50:42;;;;;;;15.68;12.93;;;32.00;99.90;;;;;;5089842;28;20271;-54
2023/08/17 11:53:08;;;;;;;13.70;12.25;;;31.70;99.90;;;;;;5091564;28;20118;-55
2023/08/17 11:55:34;;;;;;;13.82;12.55;;;32.00;99.90;;;;;;5094199;27;20043;-55
2023/08/17 11:58:02;;;;;;;11.93;10.80;;;32.00;99.90;;;;;;5115347;27;20031;-57
2023/08/17 12:00:39;;;;;;;11.65;10.52;;;32.00;99.90;;;;;;5114833;27;20432;-55
2023/08/17 12:03:05;;;;;;;11.15;9.82;;;32.20;99.90;;;;;;5074515;28;20043;-57
2023/08/17 12:05:32;;;;;;;10.93;9.90;;;32.70;99.90;;;;;;5115665;27;20027;-60
2023/08/17 12:08:03;;;;;;;13.57;10.10;;;32.80;99.90;;;;;;5088869;28;20061;-55
2023/08/17 12:10:31;;;;;;;9.27;8.32;;;33.40;99.90;;;;;;5119621;27;20075;-54
2023/08/17 12:13:01;;;;;;;8.98;8.07;;;33.40;99.90;;;;;;5107989;27;20036;-57
2023/08/17 12:15:35;;;;;;;11.48;9.27;;;33.00;99.90;;;;;;5094708;28;20398;-54
2023/08/17 12:18:03;;;;;;;9.23;8.20;;;33.00;99.90;;;;;;5120241;27;20039;-55
2023/08/17 12:20:29;;;;;;;8.57;7.78;;;32.80;99.90;;;;;;5091729;28;20351;-57
2023/08/17 12:22:58;;;;;;;18.52;12.75;;;32.60;99.90;;;;;;5108763;27;20034;-59
2023/08/17 12:25:25;;;;;;;10.52;8.55;;;33.20;99.90;;;;;;5110833;28;20019;-56
2023/08/17 12:27:51;;;;;;;9.20;7.90;;;33.60;99.90;;;;;;5108814;27;20057;-53
2023/08/17 12:30:32;;;;;;;12.60;8.68;;;33.80;99.90;;;;;;5117216;27;20467;-59
2023/08/17 12:32:58;;;;;;;9.98;7.20;;;33.70;99.90;;;;;;5115580;27;20034;-53
2023/08/17 12:35:25;;;;;;;11.38;7.47;;;33.90;99.90;;;;;;5109088;27;20431;-59
2023/08/17 12:37:52;;;;;;;9.48;8.23;;;34.20;99.90;;;;;;5125240;27;20040;-61
2023/08/17 12:40:18;;;;;;;10.30;8.48;;;33.80;99.90;;;;;;5102580;28;20521;-56
2023/08/17 12:42:44;;;;;;;9.18;7.85;;;33.80;99.90;;;;;;5112375;28;20110;-57
2023/08/17 12:45:10;;;;;;;11.88;10.02;;;;;;;;;;5087691;28;20048;-64
2023/08/17 12:47:36;;;;;;;10.63;8.55;;;34.10;99.90;;;;;;5109060;28;20024;-58
2023/08/17 12:50:03;;;;;;;10.15;7.72;;;34.30;99.90;;;;;;5074492;28;20043;-58